Time;durP1;ratioP1;P1;durP2;ratioP2;P2;SDS_P1;SDS_P2;PMS_P1;PMS_P2;Temp;Humidity;BMP_temperature;BMP_pressure;BME280_temperature;BME280_humidity;BME280_pressure;Samples;Min_cycle;Max_cycle;Signal;HPM_P1;HPM_P2
2021/10/02 00:31:50;;;;;;;3.07;2.87;;;18.40;99.90;;;;;;5013752;28;20495;-75
2021/10/02 00:45:22;;;;;;;3.60;2.73;;;18.40;99.90;;;;;;5016792;28;20468;-76
2021/10/02 00:47:55;;;;;;;3.00;2.47;;;18.40;99.90;;;;;;5023911;28;20529;-77
2021/10/02 00:50:24;;;;;;;3.67;3.00;;;18.40;99.90;;;;;;5019582;28;20863;-75
2021/10/02 00:52:53;;;;;;;4.03;3.30;;;18.30;99.90;;;;;;5015782;28;20500;-77
2021/10/02 00:55:21;;;;;;;4.10;3.40;;;18.20;99.90;;;;;;5017167;28;21025;-74
2021/10/02 00:57:50;;;;;;;3.43;3.00;;;18.20;99.90;;;;;;5017798;28;20480;-77
2021/10/02 01:00:21;;;;;;;3.93;3.03;;;18.20;99.90;;;;;;5015029;28;20456;-78
2021/10/02 01:02:54;;;;;;;3.90;3.47;;;18.20;99.90;;;;;;5012402;28;20465;-78
2021/10/02 01:05:47;;;;;;;3.33;2.90;;;18.20;99.90;;;;;;5014095;28;21003;-74
2021/10/02 01:08:29;;;;;;;3.10;2.63;;;18.20;99.90;;;;;;5000814;28;20472;-74
2021/10/02 01:11:09;;;;;;;4.00;3.10;;;18.20;99.90;;;;;;5014330;28;20951;-78
2021/10/02 01:13:45;;;;;;;4.13;3.10;;;18.20;99.90;;;;;;5015565;28;20988;-72
2021/10/02 01:16:20;;;;;;;4.83;4.00;;;18.20;99.90;;;;;;5023164;28;20975;-74
2021/10/02 01:18:54;;;;;;;4.10;3.20;;;18.20;99.90;;;;;;5023121;28;20487;-74
2021/10/02 01:21:47;;;;;;;4.43;3.80;;;18.20;99.90;;;;;;5020613;28;20876;-75
2021/10/02 01:24:36;;;;;;;2.93;2.70;;;18.20;99.90;;;;;;5014682;28;20468;-74
2021/10/02 01:27:39;;;;;;;4.40;3.27;;;18.10;99.90;;;;;;5019623;28;20538;-75
2021/10/02 01:30:15;;;;;;;4.80;3.13;;;18.00;99.90;;;;;;5006965;28;21028;-72
2021/10/02 01:32:52;;;;;;;6.03;2.90;;;18.10;99.90;;;;;;5022152;28;20978;-71
2021/10/02 01:35:31;;;;;;;2.57;2.37;;;18.10;99.90;;;;;;5021129;28;20502;-71
2021/10/02 01:49:16;;;;;;;3.10;2.80;;;18.00;99.90;;;;;;5020054;28;20459;-72
2021/10/02 01:51:45;;;;;;;4.97;3.70;;;18.10;99.90;;;;;;5006721;28;20550;-76
2021/10/02 01:54:14;;;;;;;3.57;2.63;;;18.10;99.90;;;;;;5019768;28;21062;-74
2021/10/02 01:56:44;;;;;;;3.80;3.37;;;18.10;99.90;;;;;;5021707;28;20440;-72
2021/10/02 01:59:14;;;;;;;6.87;3.30;;;18.10;99.90;;;;;;5013631;28;20482;-72
2021/10/02 02:01:46;;;;;;;6.00;3.80;;;18.10;99.90;;;;;;5013686;28;20457;-75
2021/10/02 02:04:16;;;;;;;5.83;3.17;;;18.00;99.90;;;;;;5018155;28;21029;-72
2021/10/02 02:06:47;;;;;;;4.37;3.47;;;18.00;99.90;;;;;;5019641;28;21020;-76
2021/10/02 02:09:18;;;;;;;5.23;3.83;;;18.00;99.90;;;;;;5014374;28;20457;-74
2021/10/02 02:11:46;;;;;;;3.47;3.07;;;18.00;99.90;;;;;;5020094;28;20987;-72
2021/10/02 02:14:17;;;;;;;3.47;3.17;;;18.00;99.90;;;;;;5021243;28;21061;-71
2021/10/02 02:16:47;;;;;;;4.80;2.63;;;18.10;99.90;;;;;;5020818;28;20511;-72
2021/10/02 02:19:18;;;;;;;4.40;2.93;;;18.00;99.90;;;;;;5018469;28;20482;-72
2021/10/02 02:21:47;;;;;;;4.10;3.43;;;18.00;99.90;;;;;;5019526;28;20463;-73
2021/10/02 02:24:15;;;;;;;5.50;3.80;;;18.00;99.90;;;;;;5021449;28;20468;-74
2021/10/02 02:26:43;;;;;;;4.53;3.20;;;17.90;99.90;;;;;;5019509;28;20489;-71
2021/10/02 02:29:12;;;;;;;4.00;3.20;;;18.00;99.90;;;;;;5021247;28;20460;-70
2021/10/02 02:31:42;;;;;;;5.90;2.90;;;18.00;99.90;;;;;;5017564;28;20693;-73
2021/10/02 02:34:11;;;;;;;5.90;4.23;;;18.10;99.90;;;;;;5011110;28;20875;-74
2021/10/02 02:36:39;;;;;;;3.80;3.00;;;18.20;99.90;;;;;;5013715;28;20526;-76
2021/10/02 02:39:07;;;;;;;2.90;2.23;;;18.30;99.90;;;;;;5019809;28;20453;-73
2021/10/02 02:41:35;;;;;;;3.37;2.53;;;18.30;99.90;;;;;;5016589;28;20979;-74
2021/10/02 02:44:04;;;;;;;4.13;2.33;;;18.20;99.90;;;;;;5012615;28;20472;-75
2021/10/02 02:46:35;;;;;;;3.60;2.73;;;18.20;99.90;;;;;;5017709;28;20471;-70
2021/10/02 02:49:11;;;;;;;3.53;2.60;;;18.00;99.90;;;;;;5017599;28;20845;-74
2021/10/02 02:51:47;;;;;;;5.27;2.90;;;18.00;99.90;;;;;;5013290;28;20464;-72
2021/10/02 02:54:23;;;;;;;3.37;3.00;;;18.10;99.90;;;;;;5015218;28;20513;-73
2021/10/02 02:56:52;;;;;;;2.50;1.90;;;18.10;99.90;;;;;;5016722;28;20538;-74
2021/10/02 02:59:26;;;;;;;2.50;2.10;;;18.20;99.90;;;;;;5019791;28;20464;-75
2021/10/02 03:01:56;;;;;;;3.00;2.70;;;18.10;99.90;;;;;;5018477;28;20991;-73
2021/10/02 03:04:32;;;;;;;4.70;2.73;;;18.10;99.90;;;;;;5022085;28;20464;-72
2021/10/02 03:07:02;;;;;;;2.80;2.50;;;18.10;99.90;;;;;;5017407;28;20519;-72
2021/10/02 03:09:36;;;;;;;2.93;2.27;;;18.00;99.90;;;;;;5017472;28;20453;-71
2021/10/02 03:12:06;;;;;;;3.50;2.40;;;18.00;99.90;;;;;;5016743;28;20525;-71
2021/10/02 03:14:36;;;;;;;3.70;3.00;;;18.00;99.90;;;;;;5018770;28;20492;-75
2021/10/02 03:17:07;;;;;;;2.77;2.53;;;18.00;99.90;;;;;;5015457;28;20456;-70
2021/10/02 03:19:39;;;;;;;2.90;2.27;;;18.00;99.90;;;;;;5020677;28;20522;-73
2021/10/02 03:22:08;;;;;;;3.87;2.50;;;18.00;99.90;;;;;;5010323;28;21374;-70
2021/10/02 03:24:38;;;;;;;2.87;2.67;;;18.00;99.90;;;;;;5001835;28;20461;-75
2021/10/02 03:27:08;;;;;;;3.30;2.37;;;17.90;99.90;;;;;;5020109;28;20468;-71
2021/10/02 03:29:38;;;;;;;2.50;2.30;;;17.90;99.90;;;;;;5019694;28;20468;-73
2021/10/02 03:32:08;;;;;;;3.27;2.50;;;17.80;99.90;;;;;;5017492;28;20530;-72
2021/10/02 03:34:39;;;;;;;2.70;2.50;;;17.90;99.90;;;;;;5018915;28;20546;-72
2021/10/02 03:37:07;;;;;;;3.20;2.40;;;17.80;99.90;;;;;;5020577;28;20455;-74
2021/10/02 03:39:35;;;;;;;3.77;2.13;;;17.80;99.90;;;;;;5017436;28;20931;-70
2021/10/02 03:42:09;;;;;;;2.67;2.47;;;17.50;99.90;;;;;;5007518;28;20502;-72
2021/10/02 03:44:41;;;;;;;2.53;2.10;;;17.80;99.90;;;;;;5018511;28;21402;-71
2021/10/02 03:47:10;;;;;;;2.30;2.10;;;17.80;99.90;;;;;;5018139;28;21067;-75
2021/10/02 03:49:40;;;;;;;5.00;2.90;;;17.70;99.90;;;;;;5019991;28;20952;-70
2021/10/02 03:52:09;;;;;;;2.53;1.90;;;17.70;99.90;;;;;;5018285;28;20488;-70
2021/10/02 03:54:37;;;;;;;3.70;2.50;;;17.70;99.90;;;;;;5017311;28;20914;-69
2021/10/02 03:57:06;;;;;;;2.77;2.50;;;17.60;99.90;;;;;;5010300;28;21267;-72
2021/10/02 03:59:34;;;;;;;2.23;1.80;;;17.70;99.90;;;;;;5019005;28;20464;-71
2021/10/02 04:02:02;;;;;;;3.23;2.63;;;17.70;99.90;;;;;;5020286;28;20772;-70
2021/10/02 04:04:31;;;;;;;2.23;1.97;;;17.60;99.90;;;;;;5017631;28;20499;-69
2021/10/02 04:07:00;;;;;;;2.70;2.10;;;17.50;99.90;;;;;;5020756;28;20929;-72
2021/10/02 04:09:28;;;;;;;2.60;2.40;;;17.50;99.90;;;;;;5014360;28;20810;-70
2021/10/02 04:11:56;;;;;;;3.20;2.60;;;17.50;99.90;;;;;;5013283;28;20526;-71
2021/10/02 04:14:26;;;;;;;2.97;2.43;;;17.50;99.90;;;;;;5017939;28;20472;-72
2021/10/02 04:16:54;;;;;;;4.20;2.77;;;17.40;99.90;;;;;;5016904;28;20837;-73
2021/10/02 04:19:22;;;;;;;2.90;2.40;;;17.40;99.90;;;;;;5016058;28;20444;-74
2021/10/02 04:21:50;;;;;;;3.93;3.63;;;17.50;99.90;;;;;;5020795;28;20517;-75
2021/10/02 04:24:20;;;;;;;4.40;3.10;;;17.50;99.90;;;;;;5014780;28;20480;-74
2021/10/02 04:26:48;;;;;;;2.50;2.30;;;17.40;99.90;;;;;;5015636;28;21004;-72
2021/10/02 04:29:16;;;;;;;2.43;2.23;;;17.30;99.90;;;;;;5013943;28;20490;-69
2021/10/02 04:31:44;;;;;;;3.53;2.53;;;17.30;99.90;;;;;;5011082;28;20461;-73
2021/10/02 04:34:12;;;;;;;3.90;2.60;;;17.20;99.90;;;;;;5020076;28;21019;-76
2021/10/02 04:36:41;;;;;;;3.23;2.57;;;17.10;99.90;;;;;;5022218;28;20452;-71
2021/10/02 04:39:09;;;;;;;2.43;2.10;;;17.00;99.90;;;;;;5011539;28;20537;-74
2021/10/02 04:41:38;;;;;;;3.00;2.70;;;16.90;99.90;;;;;;5011665;28;20547;-73
2021/10/02 04:44:07;;;;;;;4.00;2.20;;;17.00;99.90;;;;;;5013040;28;20478;-74
2021/10/02 04:46:35;;;;;;;3.10;2.43;;;17.10;99.90;;;;;;5022842;28;20475;-74
2021/10/02 04:49:03;;;;;;;4.10;2.27;;;17.00;99.90;;;;;;5012242;28;21110;-70
2021/10/02 04:51:32;;;;;;;3.90;2.20;;;16.90;99.90;;;;;;5018923;28;20462;-71
2021/10/02 04:54:00;;;;;;;3.30;3.00;;;16.90;99.90;;;;;;5015718;28;20541;-70
2021/10/02 04:56:28;;;;;;;3.23;2.83;;;16.90;99.90;;;;;;5016984;28;20499;-72
2021/10/02 04:58:57;;;;;;;3.07;2.77;;;17.00;99.90;;;;;;5016668;28;20487;-70
2021/10/02 05:01:25;;;;;;;4.67;2.83;;;17.00;99.90;;;;;;5012491;28;20494;-74
2021/10/02 05:03:54;;;;;;;2.20;2.00;;;17.20;99.90;;;;;;5009875;28;20476;-71
2021/10/02 05:06:22;;;;;;;2.23;2.00;;;17.30;99.90;;;;;;5019396;28;20513;-75
2021/10/02 05:08:53;;;;;;;2.67;2.47;;;17.40;99.90;;;;;;5018851;28;20492;-72
2021/10/02 05:11:21;;;;;;;3.27;2.40;;;17.50;99.90;;;;;;5016301;28;20514;-72
2021/10/02 05:13:50;;;;;;;2.60;2.30;;;17.50;99.90;;;;;;5015690;28;20469;-74
2021/10/02 05:16:19;;;;;;;3.53;2.50;;;17.40;99.90;;;;;;5017061;28;20952;-71
2021/10/02 05:18:47;;;;;;;2.53;2.13;;;17.50;99.90;;;;;;5022519;28;20460;-70
2021/10/02 05:21:15;;;;;;;2.70;2.20;;;17.60;99.90;;;;;;5018878;28;20787;-73
2021/10/02 05:23:44;;;;;;;2.30;2.10;;;17.70;99.90;;;;;;5010464;28;20502;-72
2021/10/02 05:26:12;;;;;;;4.00;1.90;;;17.80;99.90;;;;;;5009352;28;20540;-75
2021/10/02 05:28:40;;;;;;;2.47;2.10;;;17.90;99.90;;;;;;5018415;28;21202;-73
2021/10/02 05:31:09;;;;;;;2.57;2.00;;;17.90;99.90;;;;;;5021243;28;20473;-74
2021/10/02 05:33:38;;;;;;;3.57;2.10;;;17.90;99.90;;;;;;5017804;28;20514;-73
2021/10/02 05:36:06;;;;;;;2.67;2.40;;;17.90;99.90;;;;;;5017957;28;20452;-74
2021/10/02 05:38:34;;;;;;;3.07;2.57;;;17.90;99.90;;;;;;5016597;28;20488;-75
2021/10/02 05:41:03;;;;;;;2.60;2.40;;;17.90;99.90;;;;;;5019557;28;20463;-73
2021/10/02 05:43:31;;;;;;;2.87;2.07;;;17.90;99.90;;;;;;5018267;28;20885;-74
2021/10/02 05:45:59;;;;;;;4.87;2.80;;;17.90;99.90;;;;;;5015368;28;20467;-73
2021/10/02 05:48:27;;;;;;;2.93;2.37;;;17.90;99.90;;;;;;5022258;28;20480;-74
2021/10/02 05:50:57;;;;;;;2.40;2.20;;;17.90;99.90;;;;;;5021886;28;20488;-78
2021/10/02 05:53:25;;;;;;;3.10;2.50;;;18.00;99.90;;;;;;5011631;28;20611;-75
2021/10/02 05:55:53;;;;;;;2.03;1.93;;;17.90;99.90;;;;;;5019208;28;20451;-76
2021/10/02 05:58:21;;;;;;;2.73;2.07;;;17.80;99.90;;;;;;5013240;28;20915;-74
2021/10/02 06:00:49;;;;;;;3.17;2.80;;;17.80;99.90;;;;;;5012645;28;20531;-74
2021/10/02 06:03:18;;;;;;;2.40;2.00;;;17.70;99.90;;;;;;5016468;28;20480;-77
2021/10/02 06:05:46;;;;;;;2.33;2.13;;;17.70;99.90;;;;;;5014103;28;20559;-73
2021/10/02 06:08:15;;;;;;;2.97;2.50;;;17.80;99.90;;;;;;5023181;28;20537;-77
2021/10/02 06:10:43;;;;;;;3.80;2.77;;;17.60;99.90;;;;;;5026004;28;20459;-77
2021/10/02 06:13:11;;;;;;;3.83;2.63;;;17.60;99.90;;;;;;5020073;28;20528;-77
2021/10/02 06:15:39;;;;;;;3.43;2.50;;;17.60;99.90;;;;;;5017550;28;20468;-73
2021/10/02 06:18:07;;;;;;;8.17;3.67;;;17.60;99.90;;;;;;5016911;28;20541;-75
2021/10/02 06:20:36;;;;;;;3.10;2.60;;;17.60;99.90;;;;;;5019306;28;20490;-75
2021/10/02 06:23:04;;;;;;;4.47;3.27;;;17.70;99.90;;;;;;5015984;28;21417;-75
2021/10/02 06:25:34;;;;;;;3.13;2.40;;;17.70;99.90;;;;;;5017162;28;20484;-72
2021/10/02 06:28:03;;;;;;;2.90;2.40;;;17.50;99.90;;;;;;5017930;28;20484;-72
2021/10/02 06:30:31;;;;;;;2.83;2.40;;;17.40;99.90;;;;;;5010938;28;20525;-71
2021/10/02 06:32:59;;;;;;;2.60;2.40;;;17.40;99.90;;;;;;5016275;28;20487;-73
2021/10/02 06:35:28;;;;;;;4.03;3.60;;;17.50;99.90;;;;;;5011918;28;20464;-74
2021/10/02 06:37:57;;;;;;;2.83;2.40;;;17.40;99.90;;;;;;5019477;28;20456;-73
2021/10/02 06:40:26;;;;;;;2.33;2.07;;;17.40;99.90;;;;;;5017213;28;20457;-75
2021/10/02 06:42:56;;;;;;;3.40;3.10;;;17.40;99.90;;;;;;5016240;28;20483;-75
2021/10/02 06:45:24;;;;;;;4.23;3.50;;;17.50;99.90;;;;;;5015070;28;20472;-76
2021/10/02 06:47:52;;;;;;;3.80;2.40;;;17.60;99.90;;;;;;5019520;28;20460;-78
2021/10/02 06:50:20;;;;;;;4.63;2.87;;;17.70;99.90;;;;;;5019119;28;20459;-76
2021/10/02 06:52:48;;;;;;;3.77;2.57;;;17.90;99.90;;;;;;5017862;28;20569;-74
2021/10/02 06:55:16;;;;;;;3.60;2.40;;;17.90;99.90;;;;;;5016484;28;20539;-71
2021/10/02 06:57:44;;;;;;;3.20;2.40;;;17.90;99.90;;;;;;5020457;28;20460;-75
2021/10/02 07:00:14;;;;;;;3.70;2.50;;;17.90;99.90;;;;;;5021434;28;20560;-73
2021/10/02 07:02:43;;;;;;;2.97;2.73;;;17.90;99.90;;;;;;5019957;28;20452;-72
2021/10/02 07:05:14;;;;;;;3.23;3.00;;;18.00;99.90;;;;;;5012753;28;20999;-76
2021/10/02 07:07:43;;;;;;;2.93;2.63;;;18.00;99.90;;;;;;5021431;28;21022;-73
2021/10/02 07:10:12;;;;;;;3.43;2.60;;;18.00;99.90;;;;;;5019937;28;20487;-74
2021/10/02 07:12:40;;;;;;;3.10;2.80;;;18.00;99.90;;;;;;5016016;28;20536;-73
2021/10/02 07:15:09;;;;;;;2.90;2.67;;;18.00;99.90;;;;;;5016644;28;20206;-73
2021/10/02 07:17:39;;;;;;;3.30;3.00;;;18.10;99.90;;;;;;5012010;28;21327;-74
2021/10/02 07:20:08;;;;;;;2.57;2.37;;;18.10;99.90;;;;;;5016278;28;20452;-73
2021/10/02 07:22:38;;;;;;;2.80;2.60;;;18.10;99.90;;;;;;5020244;28;20874;-75
2021/10/02 07:25:08;;;;;;;3.10;2.80;;;18.10;99.90;;;;;;5016584;28;20445;-74
2021/10/02 07:27:37;;;;;;;3.17;2.53;;;18.10;99.90;;;;;;5014994;28;20197;-74
2021/10/02 07:30:06;;;;;;;3.13;2.83;;;18.20;99.90;;;;;;5014841;28;20483;-74
2021/10/02 07:32:35;;;;;;;3.87;2.97;;;18.30;99.90;;;;;;5015656;28;20460;-73
2021/10/02 07:35:06;;;;;;;3.47;2.90;;;18.30;99.90;;;;;;5011697;28;20464;-74
2021/10/02 07:37:36;;;;;;;3.43;2.50;;;18.30;99.90;;;;;;5017251;28;20576;-75
2021/10/02 07:40:06;;;;;;;3.07;2.37;;;18.20;99.90;;;;;;5016689;28;20441;-79
2021/10/02 07:42:37;;;;;;;2.57;2.17;;;18.10;99.90;;;;;;5018860;28;20463;-76
2021/10/02 07:45:08;;;;;;;2.07;1.63;;;17.80;99.90;;;;;;5017397;28;20484;-76
2021/10/02 07:47:42;;;;;;;2.27;2.00;;;18.30;99.90;;;;;;5017260;28;20495;-79
2021/10/02 07:50:14;;;;;;;2.97;2.20;;;18.60;99.90;;;;;;5020227;28;20546;-77
2021/10/02 07:52:43;;;;;;;2.10;1.90;;;18.90;99.90;;;;;;5019691;28;20537;-77
2021/10/02 07:55:13;;;;;;;4.50;2.23;;;19.20;99.90;;;;;;5012056;28;20456;-74
2021/10/02 07:57:43;;;;;;;4.50;2.13;;;19.40;99.90;;;;;;5023506;28;20506;-77
2021/10/02 08:00:14;;;;;;;2.20;2.00;;;19.70;99.90;;;;;;5023029;28;20476;-75
2021/10/02 08:02:44;;;;;;;2.92;2.63;;;19.90;99.90;;;;;;5018147;28;20446;-74
2021/10/02 08:05:15;;;;;;;2.27;2.10;;;20.10;99.90;;;;;;5020282;28;21211;-77
2021/10/02 08:07:45;;;;;;;1.90;1.50;;;20.50;99.90;;;;;;5019960;28;20653;-77
2021/10/02 08:10:15;;;;;;;3.10;1.80;;;20.70;99.90;;;;;;5016076;28;20575;-76
2021/10/02 08:12:43;;;;;;;1.87;1.60;;;20.90;99.90;;;;;;5011586;28;20962;-76
2021/10/02 08:15:12;;;;;;;2.20;1.80;;;20.90;99.90;;;;;;5005417;28;20451;-79
2021/10/02 08:17:45;;;;;;;2.60;1.80;;;21.20;99.90;;;;;;5021298;28;20488;-75
2021/10/02 08:20:18;;;;;;;3.10;1.60;;;21.30;99.90;;;;;;5025110;28;20463;-76
2021/10/02 08:22:48;;;;;;;1.60;1.50;;;21.40;99.90;;;;;;5024587;28;21026;-77
2021/10/02 08:25:17;;;;;;;1.63;1.27;;;21.60;99.90;;;;;;5024935;28;20461;-76
2021/10/02 08:27:47;;;;;;;1.57;1.47;;;21.80;99.90;;;;;;5021877;28;20447;-76
2021/10/02 08:30:17;;;;;;;1.50;1.10;;;21.90;99.90;;;;;;5022408;28;20476;-76
2021/10/02 08:32:45;;;;;;;1.80;1.70;;;21.90;99.90;;;;;;5020941;28;20492;-74
2021/10/02 08:35:15;;;;;;;1.40;1.30;;;22.00;99.90;;;;;;5022936;28;20454;-75
2021/10/02 08:37:43;;;;;;;2.63;1.57;;;22.00;99.90;;;;;;5022341;28;20979;-76
2021/10/02 08:40:15;;;;;;;1.27;1.10;;;22.10;99.90;;;;;;5022817;28;20802;-75
2021/10/02 08:42:45;;;;;;;1.43;1.10;;;22.30;99.90;;;;;;5022266;28;20978;-73
2021/10/02 08:45:15;;;;;;;1.80;1.30;;;22.50;99.90;;;;;;5023260;28;20456;-74
2021/10/02 08:47:46;;;;;;;1.37;1.27;;;22.60;99.90;;;;;;5021309;28;20463;-75
2021/10/02 08:50:17;;;;;;;2.70;1.10;;;22.70;99.90;;;;;;5011368;28;21145;-75
2021/10/02 08:52:46;;;;;;;2.73;1.30;;;22.80;99.90;;;;;;5021956;28;20475;-75
2021/10/02 08:55:15;;;;;;;1.53;1.20;;;22.90;99.90;;;;;;5029749;28;20453;-74
2021/10/02 08:57:44;;;;;;;0.93;0.93;;;23.00;99.90;;;;;;5019873;28;20452;-73
2021/10/02 09:00:14;;;;;;;1.40;1.00;;;23.20;99.90;;;;;;5020083;28;20464;-73
2021/10/02 09:02:43;;;;;;;2.13;1.47;;;23.20;99.90;;;;;;5015944;28;21104;-77
2021/10/02 09:05:13;;;;;;;1.53;1.43;;;23.30;99.90;;;;;;5017204;28;20456;-73
2021/10/02 09:07:48;;;;;;;2.43;0.97;;;23.40;99.90;;;;;;5018167;28;20473;-74
2021/10/02 09:10:17;;;;;;;1.47;1.13;;;23.60;99.90;;;;;;5014654;28;20552;-75
2021/10/02 09:12:47;;;;;;;2.17;1.23;;;23.40;99.90;;;;;;5012931;28;20831;-72
2021/10/02 09:15:16;;;;;;;4.47;1.67;;;23.50;99.90;;;;;;5018997;28;20731;-72
2021/10/02 09:17:44;;;;;;;2.23;1.30;;;23.70;99.90;;;;;;5021977;28;20953;-72
2021/10/02 09:20:14;;;;;;;1.83;1.20;;;23.60;99.90;;;;;;5019469;28;20448;-74
2021/10/02 09:22:54;;;;;;;2.83;1.30;;;23.80;99.90;;;;;;5018583;28;20474;-73
2021/10/02 09:25:23;;;;;;;1.53;1.43;;;23.80;99.90;;;;;;5020083;28;20452;-73
2021/10/02 09:28:17;;;;;;;1.27;1.17;;;23.90;99.90;;;;;;5018698;28;20506;-72
2021/10/02 09:30:46;;;;;;;1.60;1.50;;;24.20;99.90;;;;;;5001472;28;20487;-74
2021/10/02 09:33:20;;;;;;;1.60;1.50;;;24.40;99.90;;;;;;5016098;28;20480;-73
2021/10/02 09:35:50;;;;;;;3.17;1.50;;;24.40;99.90;;;;;;5010012;28;20438;-75
2021/10/02 09:38:21;;;;;;;1.80;1.53;;;24.30;99.90;;;;;;5011601;28;20460;-74
2021/10/02 09:40:51;;;;;;;3.03;1.70;;;24.50;99.90;;;;;;5011250;28;20456;-74
2021/10/02 09:43:20;;;;;;;2.80;1.53;;;24.70;99.90;;;;;;5013492;28;20481;-73
2021/10/02 09:45:50;;;;;;;3.53;1.50;;;24.80;99.90;;;;;;5017110;28;20518;-72
2021/10/02 09:48:25;;;;;;;2.53;1.33;;;24.80;99.90;;;;;;5019782;28;20467;-74
2021/10/02 09:50:53;;;;;;;1.83;1.63;;;25.10;99.90;;;;;;5017954;28;20835;-73
2021/10/02 09:53:23;;;;;;;1.67;1.40;;;25.40;99.90;;;;;;5015455;28;20485;-75
2021/10/02 09:55:53;;;;;;;1.80;1.70;;;25.30;99.90;;;;;;5020558;28;20437;-75
2021/10/02 09:58:32;;;;;;;1.50;1.40;;;25.40;99.90;;;;;;5020750;28;20464;-74
2021/10/02 10:01:04;;;;;;;1.50;1.40;;;25.50;99.90;;;;;;5014574;28;20518;-74
2021/10/02 10:03:43;;;;;;;2.90;1.90;;;25.60;99.90;;;;;;5013682;28;20510;-73
2021/10/02 10:06:18;;;;;;;2.30;1.30;;;25.50;99.90;;;;;;5020594;28;21052;-73
2021/10/02 10:09:03;;;;;;;2.20;1.60;;;25.40;99.90;;;;;;5018626;28;20546;-75
2021/10/02 10:11:43;;;;;;;1.60;1.50;;;25.30;99.90;;;;;;5013567;28;20481;-74
2021/10/02 10:14:19;;;;;;;1.70;1.60;;;25.40;99.90;;;;;;5016876;28;20472;-74
2021/10/02 10:16:47;;;;;;;4.73;2.00;;;25.60;99.90;;;;;;5017094;28;20797;-73
2021/10/02 10:19:20;;;;;;;1.93;1.50;;;25.70;99.90;;;;;;5020027;28;20458;-74
2021/10/02 10:22:05;;;;;;;7.93;1.90;;;25.90;99.90;;;;;;5019076;28;20480;-75
2021/10/02 10:24:35;;;;;;;2.03;1.70;;;26.10;99.90;;;;;;5017172;28;20507;-75
2021/10/02 10:27:04;;;;;;;1.93;1.73;;;26.10;99.90;;;;;;5015460;28;21147;-74
2021/10/02 10:29:37;;;;;;;1.67;1.50;;;26.00;99.90;;;;;;5017608;28;20456;-73
2021/10/02 10:32:07;;;;;;;1.80;1.70;;;25.90;99.90;;;;;;5009863;28;20912;-73
2021/10/02 10:34:39;;;;;;;2.17;1.60;;;25.70;99.90;;;;;;5016176;28;20502;-72
2021/10/02 10:37:09;;;;;;;2.03;1.63;;;25.50;99.90;;;;;;5015012;28;20885;-75
2021/10/02 10:39:40;;;;;;;2.50;1.80;;;25.10;99.90;;;;;;5016047;28;20484;-73
2021/10/02 10:42:08;;;;;;;4.80;2.00;;;25.10;99.90;;;;;;5012499;28;20955;-73
2021/10/02 10:44:38;;;;;;;3.90;1.90;;;25.10;99.90;;;;;;5008113;28;20492;-73
2021/10/02 10:47:06;;;;;;;2.00;1.50;;;25.00;99.90;;;;;;5015836;28;20453;-73
2021/10/02 10:49:34;;;;;;;2.20;1.70;;;24.80;99.90;;;;;;5018865;28;20468;-72
2021/10/02 10:52:06;;;;;;;2.27;1.70;;;24.50;99.90;;;;;;5016684;28;20913;-75
2021/10/02 10:54:34;;;;;;;1.80;1.40;;;24.50;99.90;;;;;;5016371;28;20569;-74
2021/10/02 10:57:04;;;;;;;1.73;1.63;;;24.50;99.90;;;;;;5016770;28;20514;-73
2021/10/02 10:59:51;;;;;;;2.50;1.80;;;24.60;99.90;;;;;;5019135;28;21220;-73
2021/10/02 11:02:44;;;;;;;2.23;1.70;;;24.70;99.90;;;;;;5013895;28;20475;-73
2021/10/02 11:05:49;;;;;;;1.67;1.57;;;24.80;99.90;;;;;;5016807;28;20466;-74
2021/10/02 11:08:22;;;;;;;1.60;1.43;;;25.10;99.90;;;;;;5018432;28;20523;-74
2021/10/02 11:10:56;;;;;;;2.07;1.40;;;25.40;99.90;;;;;;5017082;28;20472;-75
2021/10/02 11:13:56;;;;;;;1.53;1.40;;;25.60;99.90;;;;;;5015533;28;20566;-75
2021/10/02 11:16:33;;;;;;;3.67;1.97;;;25.40;99.90;;;;;;5025513;28;20836;-74
2021/10/02 11:19:02;;;;;;;1.63;1.53;;;25.50;99.90;;;;;;5011252;28;20451;-73
2021/10/02 11:21:31;;;;;;;1.50;1.40;;;25.40;99.90;;;;;;5009186;28;20453;-75
2021/10/02 11:24:14;;;;;;;1.50;1.40;;;25.20;99.90;;;;;;5012818;28;20877;-73
2021/10/02 11:26:48;;;;;;;1.50;1.40;;;25.00;99.90;;;;;;5007242;28;20548;-74
2021/10/02 11:29:31;;;;;;;2.70;1.50;;;24.90;99.90;;;;;;5016813;28;20890;-72
2021/10/02 11:32:30;;;;;;;2.17;1.40;;;25.00;99.90;;;;;;5011146;28;20515;-73
2021/10/02 11:35:30;;;;;;;2.90;1.37;;;25.00;99.90;;;;;;5017783;28;20456;-74
2021/10/02 11:38:01;;;;;;;3.43;1.57;;;24.90;99.90;;;;;;4936746;28;20472;-74
2021/10/02 11:40:46;;;;;;;1.60;1.50;;;24.80;99.90;;;;;;5003607;28;20657;-73
2021/10/02 11:43:22;;;;;;;2.13;1.57;;;24.70;99.90;;;;;;5013844;28;21016;-74
2021/10/02 11:46:05;;;;;;;1.47;1.37;;;24.70;99.90;;;;;;5019453;28;20444;-73
2021/10/02 11:48:45;;;;;;;1.60;1.40;;;24.80;99.90;;;;;;5011872;28;20483;-71
2021/10/02 11:51:31;;;;;;;1.57;1.40;;;24.90;99.90;;;;;;5006367;28;20751;-77
2021/10/02 11:54:12;;;;;;;2.00;1.50;;;25.00;99.90;;;;;;5004781;28;20749;-74
2021/10/02 11:56:44;;;;;;;2.60;1.63;;;24.80;99.90;;;;;;5008239;28;21048;-76
2021/10/02 11:59:13;;;;;;;1.60;1.40;;;24.80;99.90;;;;;;5014486;28;20461;-75
2021/10/02 12:01:45;;;;;;;3.50;1.60;;;24.80;99.90;;;;;;5015059;28;20472;-76
2021/10/02 12:04:15;;;;;;;1.57;1.47;;;24.90;99.90;;;;;;5013385;28;20476;-72
2021/10/02 12:06:45;;;;;;;2.45;1.70;;;25.00;99.90;;;;;;5016326;28;20782;-72
2021/10/02 12:09:15;;;;;;;2.60;1.70;;;25.00;99.90;;;;;;5015579;28;20198;-73
2021/10/02 12:11:45;;;;;;;1.90;1.50;;;25.00;99.90;;;;;;5019121;28;20534;-72
2021/10/02 12:14:15;;;;;;;1.50;1.40;;;24.80;99.90;;;;;;5019899;28;20705;-74
2021/10/02 12:16:50;;;;;;;2.70;1.30;;;24.90;99.90;;;;;;5013190;28;20511;-74
2021/10/02 12:19:21;;;;;;;2.03;1.53;;;25.00;99.90;;;;;;5016360;28;20456;-73
2021/10/02 12:21:50;;;;;;;2.40;2.10;;;25.10;99.90;;;;;;5012010;28;20445;-72
2021/10/02 12:24:21;;;;;;;2.20;1.80;;;25.10;99.90;;;;;;5012596;28;20566;-74
2021/10/02 12:26:54;;;;;;;1.90;1.80;;;25.10;99.90;;;;;;5019104;28;20448;-76
2021/10/02 12:29:25;;;;;;;1.63;1.20;;;25.30;99.90;;;;;;5020602;28;20213;-74
2021/10/02 12:32:06;;;;;;;2.53;1.70;;;25.50;99.90;;;;;;5014707;28;20543;-75
2021/10/02 12:34:37;;;;;;;3.63;1.73;;;25.50;99.90;;;;;;5009369;28;20480;-77
2021/10/02 12:37:09;;;;;;;2.70;1.40;;;25.40;99.90;;;;;;5017561;28;20502;-75
2021/10/02 12:39:43;;;;;;;1.37;1.20;;;25.20;99.90;;;;;;5020441;28;20467;-78
2021/10/02 12:42:13;;;;;;;1.63;1.43;;;25.10;99.90;;;;;;5015188;28;21032;-75
2021/10/02 12:44:45;;;;;;;2.33;1.80;;;25.10;99.90;;;;;;5021594;28;20476;-75
2021/10/02 12:47:16;;;;;;;1.70;1.37;;;25.10;99.90;;;;;;5024593;28;20436;-76
2021/10/02 12:49:47;;;;;;;2.03;1.63;;;25.20;99.90;;;;;;5021479;28;20463;-77
2021/10/02 12:52:18;;;;;;;2.50;2.15;;;25.20;99.90;;;;;;5023660;28;20445;-75
2021/10/02 12:54:48;;;;;;;1.47;1.37;;;25.30;99.90;;;;;;5017122;28;20226;-79
2021/10/02 12:57:18;;;;;;;2.50;1.47;;;25.20;99.90;;;;;;5015740;28;20990;-75
2021/10/02 12:59:50;;;;;;;2.87;1.73;;;25.10;99.90;;;;;;5018410;28;20960;-79
2021/10/02 13:02:21;;;;;;;1.90;1.70;;;25.10;99.90;;;;;;5020680;28;20445;-79
2021/10/02 13:04:50;;;;;;;2.03;1.70;;;25.00;99.90;;;;;;5023007;28;20516;-77
2021/10/02 13:07:23;;;;;;;1.70;1.50;;;25.20;99.90;;;;;;5016850;28;21396;-79
2021/10/02 13:09:58;;;;;;;2.87;1.70;;;25.30;99.90;;;;;;5009362;28;20277;-79
2021/10/02 13:12:29;;;;;;;8.10;2.50;;;25.20;99.90;;;;;;5013293;28;20504;-80
2021/10/02 13:14:58;;;;;;;1.90;1.70;;;25.10;99.90;;;;;;5018067;28;20488;-79
2021/10/02 13:17:28;;;;;;;2.40;1.53;;;25.00;99.90;;;;;;5020508;28;21080;-80
2021/10/02 13:20:12;;;;;;;1.83;1.50;;;25.00;99.90;;;;;;5004828;28;20450;-80
2021/10/02 13:22:43;;;;;;;1.57;1.20;;;25.10;99.90;;;;;;5012031;28;20918;-77
2021/10/02 13:25:15;;;;;;;1.60;1.50;;;25.10;99.90;;;;;;5022881;28;20971;-78
2021/10/02 13:27:46;;;;;;;1.70;1.60;;;25.20;99.90;;;;;;5020394;28;20460;-82
2021/10/02 13:30:18;;;;;;;1.60;1.50;;;25.20;99.90;;;;;;5010894;28;20796;-79
2021/10/02 13:33:00;;;;;;;2.17;1.97;;;25.20;99.90;;;;;;5012482;28;21030;-80
2021/10/02 13:35:30;;;;;;;3.20;1.90;;;25.20;99.90;;;;;;5012228;28;20562;-80
2021/10/02 13:37:59;;;;;;;1.73;1.40;;;25.20;99.90;;;;;;5006454;28;20757;-80
2021/10/02 13:40:29;;;;;;;1.53;1.40;;;25.20;99.90;;;;;;5005977;28;20535;-81
2021/10/02 13:42:59;;;;;;;1.40;1.30;;;25.30;99.90;;;;;;5010991;28;20473;-79
2021/10/02 13:45:31;;;;;;;1.73;1.63;;;25.30;99.90;;;;;;5014680;28;20997;-79
2021/10/02 13:48:06;;;;;;;1.93;1.50;;;25.20;99.90;;;;;;5009282;28;21016;-79
2021/10/02 13:50:36;;;;;;;2.33;1.60;;;25.10;99.90;;;;;;5024579;28;20862;-78
2021/10/02 13:53:04;;;;;;;1.80;1.50;;;25.10;99.90;;;;;;5014351;28;20521;-79
2021/10/02 13:55:33;;;;;;;1.80;1.70;;;25.10;99.90;;;;;;5020529;28;20867;-77
2021/10/02 13:58:03;;;;;;;2.30;1.87;;;25.10;99.90;;;;;;5014225;28;20869;-73
2021/10/02 14:00:33;;;;;;;1.60;1.50;;;24.90;99.90;;;;;;5014236;28;20859;-74
2021/10/02 14:03:01;;;;;;;1.50;1.40;;;24.90;99.90;;;;;;5015339;28;21012;-79